Summit, Wisconsin
Current Conditions -  °F | °C
As of 1:35 PM on Friday 31 Oct 2014 (Local Time) from KRRL Reporting Station
Overcast Overcast  
Wind Chill: 23°   Ceiling: 4100
Heat Index: 34°   Visibility: 10mi
Dew Point: 21°   Wind: 16mph
Humidity: 59%   Direction: 30°NNE
Pressure: 30.4"   Gusts: 24mph
Location:  45.3595°N, 89.45°W
Report Text: KRRL 311835Z AUTO 03014G21KT 10SM BKN041 OVC047 01/M06 A3040 RMK AO2 T00091062
Loading
Personal Weather Stations






























Interactive Weather Map
Tropical Storm Tracking
New forecast layout! Learn more

10-Day Weather Forecast

Advertisements
Track Severe Weather on mobile